sensor_id;sensor_type;location;lat;lon;timestamp;P1;durP1;ratioP1;P2;durP2;ratioP2
56429;SDS011;42332;52.136;20.666;2023-06-14T00:01:34;17.83;;;8.68;;
56429;SDS011;42332;52.136;20.666;2023-06-14T00:04:00;13.40;;;8.07;;
56429;SDS011;42332;52.136;20.666;2023-06-14T00:06:30;16.08;;;8.75;;
56429;SDS011;42332;52.136;20.666;2023-06-14T00:08:56;13.55;;;7.85;;
56429;SDS011;42332;52.136;20.666;2023-06-14T00:11:21;22.15;;;10.02;;
56429;SDS011;42332;52.136;20.666;2023-06-14T00:13:46;15.02;;;8.80;;
56429;SDS011;42332;52.136;20.666;2023-06-14T00:16:12;16.60;;;9.70;;
56429;SDS011;42332;52.136;20.666;2023-06-14T00:18:38;17.75;;;9.38;;
56429;SDS011;42332;52.136;20.666;2023-06-14T00:21:03;15.55;;;9.52;;
56429;SDS011;42332;52.136;20.666;2023-06-14T00:23:29;23.13;;;9.20;;
56429;SDS011;42332;52.136;20.666;2023-06-14T00:25:55;19.90;;;8.90;;
56429;SDS011;42332;52.136;20.666;2023-06-14T00:28:20;18.40;;;8.68;;
56429;SDS011;42332;52.136;20.666;2023-06-14T00:30:45;19.17;;;9.30;;
56429;SDS011;42332;52.136;20.666;2023-06-14T00:33:11;18.38;;;8.00;;
56429;SDS011;42332;52.136;20.666;2023-06-14T00:35:37;15.80;;;8.55;;
56429;SDS011;42332;52.136;20.666;2023-06-14T00:38:02;18.00;;;9.25;;
56429;SDS011;42332;52.136;20.666;2023-06-14T00:40:28;15.50;;;8.75;;
56429;SDS011;42332;52.136;20.666;2023-06-14T00:42:53;16.75;;;8.30;;
56429;SDS011;42332;52.136;20.666;2023-06-14T00:45:18;15.07;;;7.82;;
56429;SDS011;42332;52.136;20.666;2023-06-14T00:47:44;14.52;;;8.15;;
56429;SDS011;42332;52.136;20.666;2023-06-14T00:50:10;15.65;;;8.75;;
56429;SDS011;42332;52.136;20.666;2023-06-14T00:52:36;16.90;;;8.48;;
56429;SDS011;42332;52.136;20.666;2023-06-14T00:55:02;15.95;;;8.95;;
56429;SDS011;42332;52.136;20.666;2023-06-14T00:57:27;14.43;;;8.50;;
56429;SDS011;42332;52.136;20.666;2023-06-14T00:59:54;16.00;;;8.27;;
56429;SDS011;42332;52.136;20.666;2023-06-14T01:02:20;14.07;;;8.38;;
56429;SDS011;42332;52.136;20.666;2023-06-14T01:04:47;15.13;;;8.60;;
56429;SDS011;42332;52.136;20.666;2023-06-14T01:12:43;12.52;;;7.13;;
56429;SDS011;42332;52.136;20.666;2023-06-14T01:15:13;21.63;;;9.02;;
56429;SDS011;42332;52.136;20.666;2023-06-14T01:17:39;19.00;;;7.35;;
56429;SDS011;42332;52.136;20.666;2023-06-14T01:20:08;15.18;;;7.93;;
56429;SDS011;42332;52.136;20.666;2023-06-14T01:22:48;14.82;;;8.25;;
56429;SDS011;42332;52.136;20.666;2023-06-14T01:25:20;24.95;;;8.27;;
56429;SDS011;42332;52.136;20.666;2023-06-14T01:27:48;12.63;;;7.47;;
56429;SDS011;42332;52.136;20.666;2023-06-14T01:30:15;17.23;;;8.43;;
56429;SDS011;42332;52.136;20.666;2023-06-14T01:32:40;13.15;;;7.95;;
56429;SDS011;42332;52.136;20.666;2023-06-14T01:35:06;15.32;;;8.27;;
56429;SDS011;42332;52.136;20.666;2023-06-14T01:37:31;14.30;;;7.63;;
56429;SDS011;42332;52.136;20.666;2023-06-14T01:39:58;14.90;;;7.80;;
56429;SDS011;42332;52.136;20.666;2023-06-14T01:42:24;16.00;;;8.30;;
56429;SDS011;42332;52.136;20.666;2023-06-14T01:44:50;13.00;;;7.55;;
56429;SDS011;42332;52.136;20.666;2023-06-14T01:47:16;14.95;;;7.65;;
56429;SDS011;42332;52.136;20.666;2023-06-14T01:49:41;12.98;;;7.53;;
56429;SDS011;42332;52.136;20.666;2023-06-14T01:52:07;12.88;;;7.70;;
56429;SDS011;42332;52.136;20.666;2023-06-14T01:54:34;12.95;;;7.38;;
56429;SDS011;42332;52.136;20.666;2023-06-14T01:57:02;11.85;;;6.78;;
56429;SDS011;42332;52.136;20.666;2023-06-14T01:59:28;25.95;;;7.80;;
56429;SDS011;42332;52.136;20.666;2023-06-14T02:01:53;14.20;;;7.97;;
56429;SDS011;42332;52.136;20.666;2023-06-14T02:04:19;14.48;;;7.22;;
56429;SDS011;42332;52.136;20.666;2023-06-14T02:06:44;15.43;;;8.32;;
56429;SDS011;42332;52.136;20.666;2023-06-14T02:09:09;21.05;;;8.05;;
56429;SDS011;42332;52.136;20.666;2023-06-14T02:11:35;15.73;;;8.13;;
56429;SDS011;42332;52.136;20.666;2023-06-14T02:14:00;18.83;;;7.38;;
56429;SDS011;42332;52.136;20.666;2023-06-14T02:16:26;18.23;;;7.93;;
56429;SDS011;42332;52.136;20.666;2023-06-14T02:18:53;16.92;;;7.60;;
56429;SDS011;42332;52.136;20.666;2023-06-14T02:21:18;17.45;;;8.00;;
56429;SDS011;42332;52.136;20.666;2023-06-14T02:23:44;21.38;;;8.68;;
56429;SDS011;42332;52.136;20.666;2023-06-14T02:26:10;14.40;;;8.10;;
56429;SDS011;42332;52.136;20.666;2023-06-14T02:28:35;19.63;;;8.43;;
56429;SDS011;42332;52.136;20.666;2023-06-14T02:31:00;14.88;;;9.00;;
56429;SDS011;42332;52.136;20.666;2023-06-14T02:33:26;16.27;;;8.15;;
56429;SDS011;42332;52.136;20.666;2023-06-14T02:35:51;16.05;;;8.15;;
56429;SDS011;42332;52.136;20.666;2023-06-14T02:38:17;14.02;;;8.43;;
56429;SDS011;42332;52.136;20.666;2023-06-14T02:40:43;13.00;;;8.15;;
56429;SDS011;42332;52.136;20.666;2023-06-14T02:43:08;16.23;;;8.50;;
56429;SDS011;42332;52.136;20.666;2023-06-14T02:45:34;16.13;;;8.80;;
56429;SDS011;42332;52.136;20.666;2023-06-14T02:47:59;16.73;;;7.95;;
56429;SDS011;42332;52.136;20.666;2023-06-14T02:50:24;15.25;;;8.77;;
56429;SDS011;42332;52.136;20.666;2023-06-14T02:52:50;17.98;;;8.35;;
56429;SDS011;42332;52.136;20.666;2023-06-14T02:55:17;12.30;;;7.55;;
56429;SDS011;42332;52.136;20.666;2023-06-14T02:57:43;17.52;;;8.25;;
56429;SDS011;42332;52.136;20.666;2023-06-14T03:00:08;19.95;;;8.20;;
56429;SDS011;42332;52.136;20.666;2023-06-14T03:02:38;13.05;;;7.53;;
56429;SDS011;42332;52.136;20.666;2023-06-14T03:05:03;13.38;;;8.23;;
56429;SDS011;42332;52.136;20.666;2023-06-14T03:07:29;16.98;;;7.85;;
56429;SDS011;42332;52.136;20.666;2023-06-14T03:09:54;12.63;;;7.47;;
56429;SDS011;42332;52.136;20.666;2023-06-14T03:12:20;14.38;;;7.97;;
56429;SDS011;42332;52.136;20.666;2023-06-14T03:14:45;14.85;;;7.95;;
56429;SDS011;42332;52.136;20.666;2023-06-14T03:17:11;17.58;;;8.65;;
56429;SDS011;42332;52.136;20.666;2023-06-14T03:19:37;14.32;;;7.53;;
56429;SDS011;42332;52.136;20.666;2023-06-14T03:22:02;19.85;;;7.82;;
56429;SDS011;42332;52.136;20.666;2023-06-14T03:24:28;16.60;;;7.57;;
56429;SDS011;42332;52.136;20.666;2023-06-14T03:26:53;13.48;;;7.47;;
56429;SDS011;42332;52.136;20.666;2023-06-14T03:29:19;18.83;;;7.78;;
56429;SDS011;42332;52.136;20.666;2023-06-14T03:31:57;13.68;;;7.50;;
56429;SDS011;42332;52.136;20.666;2023-06-14T03:34:26;12.57;;;7.28;;
56429;SDS011;42332;52.136;20.666;2023-06-14T03:36:51;22.08;;;8.05;;
56429;SDS011;42332;52.136;20.666;2023-06-14T03:39:17;17.65;;;7.55;;
56429;SDS011;42332;52.136;20.666;2023-06-14T03:41:43;13.60;;;7.65;;
56429;SDS011;42332;52.136;20.666;2023-06-14T03:44:08;16.45;;;7.95;;
56429;SDS011;42332;52.136;20.666;2023-06-14T03:46:34;16.60;;;8.07;;
56429;SDS011;42332;52.136;20.666;2023-06-14T03:48:59;14.88;;;7.13;;
56429;SDS011;42332;52.136;20.666;2023-06-14T03:51:25;14.45;;;8.02;;
56429;SDS011;42332;52.136;20.666;2023-06-14T03:53:51;14.70;;;8.52;;
56429;SDS011;42332;52.136;20.666;2023-06-14T03:56:16;19.52;;;9.48;;
56429;SDS011;42332;52.136;20.666;2023-06-14T03:58:41;17.23;;;9.05;;
56429;SDS011;42332;52.136;20.666;2023-06-14T04:01:07;18.13;;;8.77;;
56429;SDS011;42332;52.136;20.666;2023-06-14T04:03:32;15.63;;;8.57;;
56429;SDS011;42332;52.136;20.666;2023-06-14T04:05:58;16.55;;;8.48;;
56429;SDS011;42332;52.136;20.666;2023-06-14T04:08:24;16.15;;;8.85;;
56429;SDS011;42332;52.136;20.666;2023-06-14T04:10:50;13.48;;;8.38;;
56429;SDS011;42332;52.136;20.666;2023-06-14T04:13:15;17.00;;;8.90;;
56429;SDS011;42332;52.136;20.666;2023-06-14T04:15:41;14.07;;;8.27;;
56429;SDS011;42332;52.136;20.666;2023-06-14T04:18:10;16.08;;;8.70;;
56429;SDS011;42332;52.136;20.666;2023-06-14T04:20:36;12.35;;;7.97;;
56429;SDS011;42332;52.136;20.666;2023-06-14T04:23:14;14.32;;;8.18;;
56429;SDS011;42332;52.136;20.666;2023-06-14T04:25:43;14.80;;;8.95;;
56429;SDS011;42332;52.136;20.666;2023-06-14T04:28:13;14.38;;;8.02;;
56429;SDS011;42332;52.136;20.666;2023-06-14T04:30:42;17.50;;;7.43;;
56429;SDS011;42332;52.136;20.666;2023-06-14T04:33:08;16.75;;;8.25;;
56429;SDS011;42332;52.136;20.666;2023-06-14T04:35:35;13.95;;;8.77;;
56429;SDS011;42332;52.136;20.666;2023-06-14T04:38:01;17.00;;;8.27;;
56429;SDS011;42332;52.136;20.666;2023-06-14T04:40:26;18.40;;;8.38;;
56429;SDS011;42332;52.136;20.666;2023-06-14T04:42:52;23.33;;;8.27;;
56429;SDS011;42332;52.136;20.666;2023-06-14T04:45:17;15.05;;;8.05;;
56429;SDS011;42332;52.136;20.666;2023-06-14T04:47:43;15.35;;;7.93;;
56429;SDS011;42332;52.136;20.666;2023-06-14T04:50:09;12.65;;;7.45;;
56429;SDS011;42332;52.136;20.666;2023-06-14T04:52:35;15.75;;;7.30;;
56429;SDS011;42332;52.136;20.666;2023-06-14T04:55:02;13.65;;;7.68;;
56429;SDS011;42332;52.136;20.666;2023-06-14T04:57:28;11.98;;;7.22;;
56429;SDS011;42332;52.136;20.666;2023-06-14T04:59:53;13.93;;;7.90;;
56429;SDS011;42332;52.136;20.666;2023-06-14T05:02:20;14.95;;;7.22;;
56429;SDS011;42332;52.136;20.666;2023-06-14T05:04:47;11.32;;;6.68;;
56429;SDS011;42332;52.136;20.666;2023-06-14T05:07:12;12.38;;;6.95;;
56429;SDS011;42332;52.136;20.666;2023-06-14T05:09:39;21.42;;;7.13;;
56429;SDS011;42332;52.136;20.666;2023-06-14T05:12:04;10.93;;;7.35;;
56429;SDS011;42332;52.136;20.666;2023-06-14T05:14:33;13.35;;;7.30;;
56429;SDS011;42332;52.136;20.666;2023-06-14T05:17:01;14.82;;;7.72;;
56429;SDS011;42332;52.136;20.666;2023-06-14T05:19:27;16.88;;;7.78;;
56429;SDS011;42332;52.136;20.666;2023-06-14T05:21:53;13.95;;;7.28;;
56429;SDS011;42332;52.136;20.666;2023-06-14T05:24:18;12.88;;;7.47;;
56429;SDS011;42332;52.136;20.666;2023-06-14T05:26:43;15.30;;;7.57;;
56429;SDS011;42332;52.136;20.666;2023-06-14T05:29:09;13.63;;;7.18;;
56429;SDS011;42332;52.136;20.666;2023-06-14T05:31:34;12.55;;;6.95;;
56429;SDS011;42332;52.136;20.666;2023-06-14T05:34:00;13.23;;;7.40;;
56429;SDS011;42332;52.136;20.666;2023-06-14T05:36:25;14.27;;;8.05;;
56429;SDS011;42332;52.136;20.666;2023-06-14T05:38:52;16.05;;;7.53;;
56429;SDS011;42332;52.136;20.666;2023-06-14T05:41:22;15.40;;;7.82;;
56429;SDS011;42332;52.136;20.666;2023-06-14T05:43:51;11.90;;;7.22;;
56429;SDS011;42332;52.136;20.666;2023-06-14T05:46:17;13.60;;;7.28;;
56429;SDS011;42332;52.136;20.666;2023-06-14T05:48:47;15.57;;;8.23;;
56429;SDS011;42332;52.136;20.666;2023-06-14T05:51:15;12.63;;;7.47;;
56429;SDS011;42332;52.136;20.666;2023-06-14T05:53:43;17.55;;;7.53;;
56429;SDS011;42332;52.136;20.666;2023-06-14T05:56:09;17.17;;;8.05;;
56429;SDS011;42332;52.136;20.666;2023-06-14T05:58:34;14.10;;;8.25;;
56429;SDS011;42332;52.136;20.666;2023-06-14T06:01:00;12.15;;;6.90;;
56429;SDS011;42332;52.136;20.666;2023-06-14T06:03:26;13.38;;;7.35;;
56429;SDS011;42332;52.136;20.666;2023-06-14T06:05:54;13.13;;;7.40;;
56429;SDS011;42332;52.136;20.666;2023-06-14T06:08:19;15.38;;;8.15;;
56429;SDS011;42332;52.136;20.666;2023-06-14T06:10:45;15.80;;;7.35;;
56429;SDS011;42332;52.136;20.666;2023-06-14T06:13:10;11.80;;;7.10;;
56429;SDS011;42332;52.136;20.666;2023-06-14T06:15:35;12.60;;;7.32;;
56429;SDS011;42332;52.136;20.666;2023-06-14T06:18:01;14.52;;;7.40;;
56429;SDS011;42332;52.136;20.666;2023-06-14T06:20:26;11.05;;;6.95;;
56429;SDS011;42332;52.136;20.666;2023-06-14T06:22:52;14.68;;;7.25;;
56429;SDS011;42332;52.136;20.666;2023-06-14T06:25:18;10.98;;;6.43;;
56429;SDS011;42332;52.136;20.666;2023-06-14T06:27:44;21.08;;;7.47;;
56429;SDS011;42332;52.136;20.666;2023-06-14T06:30:09;12.10;;;7.05;;
56429;SDS011;42332;52.136;20.666;2023-06-14T06:32:35;11.57;;;6.88;;
56429;SDS011;42332;52.136;20.666;2023-06-14T06:35:01;15.85;;;7.78;;
56429;SDS011;42332;52.136;20.666;2023-06-14T06:37:26;13.75;;;7.78;;
56429;SDS011;42332;52.136;20.666;2023-06-14T06:39:51;14.05;;;7.57;;
56429;SDS011;42332;52.136;20.666;2023-06-14T06:42:17;17.02;;;7.65;;
56429;SDS011;42332;52.136;20.666;2023-06-14T06:44:42;14.18;;;7.65;;
56429;SDS011;42332;52.136;20.666;2023-06-14T06:47:07;11.70;;;6.60;;
56429;SDS011;42332;52.136;20.666;2023-06-14T06:49:34;15.82;;;6.68;;
56429;SDS011;42332;52.136;20.666;2023-06-14T06:52:03;15.77;;;6.97;;
56429;SDS011;42332;52.136;20.666;2023-06-14T06:54:30;11.70;;;7.40;;
56429;SDS011;42332;52.136;20.666;2023-06-14T06:56:56;12.93;;;7.53;;
56429;SDS011;42332;52.136;20.666;2023-06-14T06:59:21;18.08;;;7.40;;
56429;SDS011;42332;52.136;20.666;2023-06-14T07:01:47;14.57;;;7.40;;
56429;SDS011;42332;52.136;20.666;2023-06-14T07:04:12;10.98;;;6.45;;
56429;SDS011;42332;52.136;20.666;2023-06-14T07:06:38;12.30;;;7.22;;
56429;SDS011;42332;52.136;20.666;2023-06-14T07:09:03;11.57;;;6.03;;
56429;SDS011;42332;52.136;20.666;2023-06-14T07:11:31;10.45;;;6.30;;
56429;SDS011;42332;52.136;20.666;2023-06-14T07:13:57;13.50;;;6.22;;
56429;SDS011;42332;52.136;20.666;2023-06-14T07:16:22;14.70;;;5.90;;
56429;SDS011;42332;52.136;20.666;2023-06-14T07:18:48;12.88;;;5.57;;
56429;SDS011;42332;52.136;20.666;2023-06-14T07:21:13;13.73;;;5.47;;
56429;SDS011;42332;52.136;20.666;2023-06-14T07:23:39;14.32;;;5.75;;
56429;SDS011;42332;52.136;20.666;2023-06-14T07:26:04;11.07;;;5.70;;
56429;SDS011;42332;52.136;20.666;2023-06-14T07:28:30;14.23;;;5.78;;
56429;SDS011;42332;52.136;20.666;2023-06-14T07:30:55;11.95;;;5.80;;
56429;SDS011;42332;52.136;20.666;2023-06-14T07:33:21;11.35;;;5.50;;
56429;SDS011;42332;52.136;20.666;2023-06-14T07:35:46;10.25;;;5.47;;
56429;SDS011;42332;52.136;20.666;2023-06-14T07:38:12;15.18;;;6.07;;
56429;SDS011;42332;52.136;20.666;2023-06-14T07:40:38;13.23;;;6.00;;
56429;SDS011;42332;52.136;20.666;2023-06-14T07:43:03;12.48;;;4.50;;
56429;SDS011;42332;52.136;20.666;2023-06-14T07:45:29;13.18;;;4.10;;
56429;SDS011;42332;52.136;20.666;2023-06-14T07:47:54;7.50;;;3.35;;
56429;SDS011;42332;52.136;20.666;2023-06-14T07:50:20;7.90;;;3.50;;
56429;SDS011;42332;52.136;20.666;2023-06-14T07:52:45;13.05;;;3.42;;
56429;SDS011;42332;52.136;20.666;2023-06-14T07:55:11;7.30;;;3.53;;
56429;SDS011;42332;52.136;20.666;2023-06-14T07:57:37;7.32;;;3.58;;
56429;SDS011;42332;52.136;20.666;2023-06-14T08:00:03;10.02;;;3.42;;
56429;SDS011;42332;52.136;20.666;2023-06-14T08:02:31;6.53;;;2.80;;
56429;SDS011;42332;52.136;20.666;2023-06-14T08:04:56;7.40;;;3.55;;
56429;SDS011;42332;52.136;20.666;2023-06-14T08:07:22;11.55;;;2.83;;
56429;SDS011;42332;52.136;20.666;2023-06-14T08:09:47;6.13;;;3.03;;
56429;SDS011;42332;52.136;20.666;2023-06-14T08:12:13;12.80;;;2.90;;
56429;SDS011;42332;52.136;20.666;2023-06-14T08:14:39;7.97;;;3.20;;
56429;SDS011;42332;52.136;20.666;2023-06-14T08:17:04;5.63;;;2.65;;
56429;SDS011;42332;52.136;20.666;2023-06-14T08:19:30;9.48;;;3.38;;
56429;SDS011;42332;52.136;20.666;2023-06-14T08:21:56;9.15;;;3.10;;
56429;SDS011;42332;52.136;20.666;2023-06-14T08:24:21;7.50;;;3.00;;
56429;SDS011;42332;52.136;20.666;2023-06-14T08:26:49;8.18;;;3.25;;
56429;SDS011;42332;52.136;20.666;2023-06-14T08:29:15;6.45;;;2.90;;
56429;SDS011;42332;52.136;20.666;2023-06-14T08:31:40;9.88;;;3.67;;
56429;SDS011;42332;52.136;20.666;2023-06-14T08:34:05;12.57;;;4.85;;
56429;SDS011;42332;52.136;20.666;2023-06-14T08:36:31;12.30;;;6.10;;
56429;SDS011;42332;52.136;20.666;2023-06-14T08:38:56;17.67;;;5.70;;
56429;SDS011;42332;52.136;20.666;2023-06-14T08:41:22;10.65;;;5.47;;
56429;SDS011;42332;52.136;20.666;2023-06-14T08:43:50;10.75;;;4.78;;
56429;SDS011;42332;52.136;20.666;2023-06-14T08:46:17;13.02;;;4.90;;
56429;SDS011;42332;52.136;20.666;2023-06-14T08:48:44;9.45;;;3.92;;
56429;SDS011;42332;52.136;20.666;2023-06-14T08:51:10;15.40;;;5.35;;
56429;SDS011;42332;52.136;20.666;2023-06-14T08:53:36;18.05;;;5.60;;
56429;SDS011;42332;52.136;20.666;2023-06-14T08:56:07;15.43;;;5.35;;
56429;SDS011;42332;52.136;20.666;2023-06-14T08:58:38;11.07;;;4.03;;
56429;SDS011;42332;52.136;20.666;2023-06-14T09:01:08;13.18;;;3.65;;
56429;SDS011;42332;52.136;20.666;2023-06-14T09:03:36;7.13;;;3.40;;
56429;SDS011;42332;52.136;20.666;2023-06-14T09:06:05;9.05;;;3.55;;
56429;SDS011;42332;52.136;20.666;2023-06-14T09:08:33;7.20;;;2.70;;
56429;SDS011;42332;52.136;20.666;2023-06-14T09:11:00;14.35;;;3.08;;
56429;SDS011;42332;52.136;20.666;2023-06-14T09:13:26;9.13;;;3.25;;
56429;SDS011;42332;52.136;20.666;2023-06-14T09:15:52;12.95;;;5.22;;
56429;SDS011;42332;52.136;20.666;2023-06-14T09:18:18;10.43;;;3.90;;
56429;SDS011;42332;52.136;20.666;2023-06-14T09:20:45;10.68;;;3.33;;
56429;SDS011;42332;52.136;20.666;2023-06-14T09:23:12;13.82;;;5.10;;
56429;SDS011;42332;52.136;20.666;2023-06-14T09:25:41;14.00;;;5.20;;
56429;SDS011;42332;52.136;20.666;2023-06-14T09:28:08;15.27;;;4.93;;
56429;SDS011;42332;52.136;20.666;2023-06-14T09:30:34;10.48;;;4.13;;
56429;SDS011;42332;52.136;20.666;2023-06-14T09:33:01;9.32;;;4.88;;
56429;SDS011;42332;52.136;20.666;2023-06-14T09:35:26;13.68;;;6.55;;
56429;SDS011;42332;52.136;20.666;2023-06-14T09:37:54;13.20;;;6.68;;
56429;SDS011;42332;52.136;20.666;2023-06-14T09:40:20;10.35;;;6.65;;
56429;SDS011;42332;52.136;20.666;2023-06-14T09:42:46;11.52;;;6.03;;
56429;SDS011;42332;52.136;20.666;2023-06-14T09:45:11;12.25;;;6.45;;
56429;SDS011;42332;52.136;20.666;2023-06-14T09:47:38;12.85;;;5.72;;
56429;SDS011;42332;52.136;20.666;2023-06-14T09:50:04;16.35;;;5.93;;
56429;SDS011;42332;52.136;20.666;2023-06-14T09:52:30;12.20;;;6.10;;
56429;SDS011;42332;52.136;20.666;2023-06-14T09:54:55;14.25;;;5.47;;
56429;SDS011;42332;52.136;20.666;2023-06-14T09:57:22;13.57;;;6.03;;
56429;SDS011;42332;52.136;20.666;2023-06-14T09:59:49;11.85;;;6.35;;
56429;SDS011;42332;52.136;20.666;2023-06-14T10:02:21;18.00;;;6.85;;
56429;SDS011;42332;52.136;20.666;2023-06-14T10:04:51;11.88;;;6.20;;
56429;SDS011;42332;52.136;20.666;2023-06-14T10:07:27;13.90;;;6.35;;
56429;SDS011;42332;52.136;20.666;2023-06-14T10:09:55;18.17;;;6.47;;
56429;SDS011;42332;52.136;20.666;2023-06-14T10:12:20;17.75;;;5.38;;
56429;SDS011;42332;52.136;20.666;2023-06-14T10:14:49;9.95;;;5.43;;
56429;SDS011;42332;52.136;20.666;2023-06-14T10:17:39;12.35;;;5.25;;
56429;SDS011;42332;52.136;20.666;2023-06-14T10:20:48;13.43;;;4.95;;
56429;SDS011;42332;52.136;20.666;2023-06-14T10:23:08;13.25;;;4.72;;
56429;SDS011;42332;52.136;20.666;2023-06-14T10:25:36;12.88;;;4.78;;
56429;SDS011;42332;52.136;20.666;2023-06-14T10:28:14;9.25;;;4.60;;
56429;SDS011;42332;52.136;20.666;2023-06-14T10:31:02;10.55;;;5.10;;
56429;SDS011;42332;52.136;20.666;2023-06-14T10:33:48;12.23;;;4.78;;
56429;SDS011;42332;52.136;20.666;2023-06-14T10:36:25;12.07;;;4.53;;
56429;SDS011;42332;52.136;20.666;2023-06-14T10:41:30;10.07;;;4.70;;
56429;SDS011;42332;52.136;20.666;2023-06-14T10:46:40;8.30;;;4.75;;
56429;SDS011;42332;52.136;20.666;2023-06-14T10:49:05;11.55;;;5.45;;
56429;SDS011;42332;52.136;20.666;2023-06-14T10:51:38;12.10;;;5.55;;
56429;SDS011;42332;52.136;20.666;2023-06-14T10:54:11;8.57;;;4.80;;
56429;SDS011;42332;52.136;20.666;2023-06-14T10:56:38;11.10;;;3.95;;
56429;SDS011;42332;52.136;20.666;2023-06-14T10:59:14;9.52;;;4.50;;
56429;SDS011;42332;52.136;20.666;2023-06-14T11:04:48;9.70;;;3.67;;
56429;SDS011;42332;52.136;20.666;2023-06-14T11:10:03;9.93;;;3.70;;
56429;SDS011;42332;52.136;20.666;2023-06-14T11:12:40;11.57;;;3.08;;
56429;SDS011;42332;52.136;20.666;2023-06-14T11:15:07;10.65;;;3.30;;
56429;SDS011;42332;52.136;20.666;2023-06-14T11:17:33;6.07;;;2.95;;
56429;SDS011;42332;52.136;20.666;2023-06-14T11:20:07;7.13;;;3.08;;
56429;SDS011;42332;52.136;20.666;2023-06-14T11:22:39;7.07;;;2.85;;
56429;SDS011;42332;52.136;20.666;2023-06-14T11:25:08;9.77;;;3.20;;
56429;SDS011;42332;52.136;20.666;2023-06-14T11:27:34;6.25;;;3.13;;
56429;SDS011;42332;52.136;20.666;2023-06-14T11:29:59;9.85;;;3.35;;
56429;SDS011;42332;52.136;20.666;2023-06-14T11:32:24;9.07;;;3.40;;
56429;SDS011;42332;52.136;20.666;2023-06-14T11:34:50;6.75;;;3.20;;
56429;SDS011;42332;52.136;20.666;2023-06-14T11:37:16;12.88;;;3.55;;
56429;SDS011;42332;52.136;20.666;2023-06-14T11:39:44;6.65;;;2.97;;
56429;SDS011;42332;52.136;20.666;2023-06-14T11:42:16;9.20;;;3.60;;
56429;SDS011;42332;52.136;20.666;2023-06-14T11:44:41;8.98;;;3.85;;
56429;SDS011;42332;52.136;20.666;2023-06-14T11:47:07;8.10;;;3.25;;
56429;SDS011;42332;52.136;20.666;2023-06-14T11:49:35;10.35;;;3.85;;
56429;SDS011;42332;52.136;20.666;2023-06-14T11:52:01;8.35;;;3.85;;
56429;SDS011;42332;52.136;20.666;2023-06-14T11:54:26;9.10;;;3.30;;
56429;SDS011;42332;52.136;20.666;2023-06-14T11:56:52;8.43;;;3.03;;
56429;SDS011;42332;52.136;20.666;2023-06-14T11:59:17;11.52;;;3.72;;
56429;SDS011;42332;52.136;20.666;2023-06-14T12:01:43;6.88;;;2.72;;
56429;SDS011;42332;52.136;20.666;2023-06-14T12:04:08;9.07;;;3.03;;
56429;SDS011;42332;52.136;20.666;2023-06-14T12:06:34;6.80;;;3.28;;
56429;SDS011;42332;52.136;20.666;2023-06-14T12:09:03;9.00;;;2.90;;
56429;SDS011;42332;52.136;20.666;2023-06-14T12:11:32;8.75;;;2.47;;
56429;SDS011;42332;52.136;20.666;2023-06-14T12:13:58;7.68;;;2.88;;
56429;SDS011;42332;52.136;20.666;2023-06-14T12:16:29;10.02;;;2.75;;
56429;SDS011;42332;52.136;20.666;2023-06-14T12:18:56;6.85;;;2.65;;
56429;SDS011;42332;52.136;20.666;2023-06-14T12:21:22;8.52;;;2.67;;
56429;SDS011;42332;52.136;20.666;2023-06-14T12:23:48;9.90;;;2.70;;
56429;SDS011;42332;52.136;20.666;2023-06-14T12:26:15;8.32;;;2.55;;
56429;SDS011;42332;52.136;20.666;2023-06-14T12:28:42;11.48;;;2.60;;
56429;SDS011;42332;52.136;20.666;2023-06-14T12:31:08;12.52;;;2.63;;
56429;SDS011;42332;52.136;20.666;2023-06-14T12:33:33;7.55;;;2.85;;
56429;SDS011;42332;52.136;20.666;2023-06-14T12:35:59;9.82;;;2.95;;
56429;SDS011;42332;52.136;20.666;2023-06-14T12:38:24;8.73;;;2.90;;
56429;SDS011;42332;52.136;20.666;2023-06-14T12:40:50;9.07;;;2.78;;
56429;SDS011;42332;52.136;20.666;2023-06-14T12:43:15;7.93;;;3.10;;
56429;SDS011;42332;52.136;20.666;2023-06-14T12:45:40;7.10;;;2.88;;
56429;SDS011;42332;52.136;20.666;2023-06-14T12:48:06;9.00;;;3.25;;
56429;SDS011;42332;52.136;20.666;2023-06-14T12:50:33;8.13;;;3.15;;
56429;SDS011;42332;52.136;20.666;2023-06-14T12:52:58;9.25;;;3.22;;
56429;SDS011;42332;52.136;20.666;2023-06-14T12:55:24;7.78;;;3.08;;
56429;SDS011;42332;52.136;20.666;2023-06-14T12:57:49;6.57;;;2.28;;
56429;SDS011;42332;52.136;20.666;2023-06-14T13:00:16;5.40;;;2.17;;
56429;SDS011;42332;52.136;20.666;2023-06-14T13:02:42;6.68;;;2.17;;
56429;SDS011;42332;52.136;20.666;2023-06-14T13:05:07;5.75;;;2.30;;
56429;SDS011;42332;52.136;20.666;2023-06-14T13:07:33;5.85;;;2.22;;
56429;SDS011;42332;52.136;20.666;2023-06-14T13:09:58;8.60;;;2.50;;
56429;SDS011;42332;52.136;20.666;2023-06-14T13:12:23;7.03;;;2.40;;
56429;SDS011;42332;52.136;20.666;2023-06-14T13:14:49;5.25;;;1.80;;
56429;SDS011;42332;52.136;20.666;2023-06-14T13:17:14;8.90;;;2.63;;
56429;SDS011;42332;52.136;20.666;2023-06-14T13:19:40;7.60;;;2.60;;
56429;SDS011;42332;52.136;20.666;2023-06-14T13:22:07;7.20;;;2.40;;
56429;SDS011;42332;52.136;20.666;2023-06-14T13:24:33;9.80;;;2.58;;
56429;SDS011;42332;52.136;20.666;2023-06-14T13:26:58;7.40;;;2.30;;
56429;SDS011;42332;52.136;20.666;2023-06-14T13:29:24;7.65;;;2.42;;
56429;SDS011;42332;52.136;20.666;2023-06-14T13:31:50;7.32;;;2.80;;
56429;SDS011;42332;52.136;20.666;2023-06-14T13:34:15;5.30;;;2.10;;
56429;SDS011;42332;52.136;20.666;2023-06-14T13:36:40;4.18;;;2.10;;
56429;SDS011;42332;52.136;20.666;2023-06-14T13:39:06;7.13;;;2.28;;
56429;SDS011;42332;52.136;20.666;2023-06-14T13:41:31;7.57;;;2.03;;
56429;SDS011;42332;52.136;20.666;2023-06-14T13:43:59;6.75;;;2.08;;
56429;SDS011;42332;52.136;20.666;2023-06-14T13:46:25;6.25;;;2.60;;
56429;SDS011;42332;52.136;20.666;2023-06-14T13:48:50;6.03;;;2.60;;
56429;SDS011;42332;52.136;20.666;2023-06-14T13:51:16;6.10;;;2.80;;
56429;SDS011;42332;52.136;20.666;2023-06-14T13:53:43;6.55;;;2.80;;
56429;SDS011;42332;52.136;20.666;2023-06-14T13:56:08;8.13;;;2.63;;
56429;SDS011;42332;52.136;20.666;2023-06-14T13:58:34;6.10;;;2.58;;
56429;SDS011;42332;52.136;20.666;2023-06-14T14:00:59;4.70;;;2.25;;
56429;SDS011;42332;52.136;20.666;2023-06-14T14:03:26;5.82;;;2.42;;
56429;SDS011;42332;52.136;20.666;2023-06-14T14:05:51;5.32;;;2.00;;
56429;SDS011;42332;52.136;20.666;2023-06-14T14:08:17;5.03;;;2.25;;
56429;SDS011;42332;52.136;20.666;2023-06-14T14:10:42;8.73;;;2.22;;
56429;SDS011;42332;52.136;20.666;2023-06-14T14:13:07;4.82;;;2.15;;
56429;SDS011;42332;52.136;20.666;2023-06-14T14:15:33;6.13;;;2.00;;
56429;SDS011;42332;52.136;20.666;2023-06-14T14:17:59;10.88;;;3.28;;
56429;SDS011;42332;52.136;20.666;2023-06-14T14:20:25;5.18;;;2.63;;
56429;SDS011;42332;52.136;20.666;2023-06-14T14:22:50;5.82;;;2.35;;
56429;SDS011;42332;52.136;20.666;2023-06-14T14:25:15;5.30;;;2.47;;
56429;SDS011;42332;52.136;20.666;2023-06-14T14:27:41;5.68;;;2.60;;
56429;SDS011;42332;52.136;20.666;2023-06-14T14:30:07;6.75;;;3.08;;
56429;SDS011;42332;52.136;20.666;2023-06-14T14:32:32;8.10;;;3.22;;
56429;SDS011;42332;52.136;20.666;2023-06-14T14:34:58;9.90;;;3.72;;
56429;SDS011;42332;52.136;20.666;2023-06-14T14:37:23;6.00;;;2.92;;
56429;SDS011;42332;52.136;20.666;2023-06-14T14:39:48;8.50;;;3.13;;